Portada
METAR-TAF:

METAR-TAF

Aeropuertos :

Aeropuerto Internacional de Dakar-Yoff/Léopold Sédar Senghor

Dakar, Senegal

latitud: 14-44N, longitud: 017-30W, altitud: 27 m

Observación

El informe se hizo hace 33 minutos, a las 16:00 UTC
Viento 8 kt del noreste
Temperatura 26°C
Humedad 51%
Presión 1011 hPa
Visibilidad: 3500 m
Polvo extendido

METAR: GOOY 111600Z 04008KT 3500 DU NSC 26/15 Q1011

Hora: 16:33 (16:33 UTC)

Pronóstico

El informe se hizo hace 5 horas y 3 minutos, a las 11:30 UTC
Pronóstico válido del 11 a las 12 UTC al 12 a las 18 UTC
Viento 11 kt del norte-noreste
Visibilidad: 3000 m
Polvo extendido

TAF: GOOY 111130Z 1112/1218 02011KT 3000 DU NSC

Observaciones y pronósticos meteorológicos de más de 4000 aeropuertos (mensajes METAR y TAF).

Los puntos amarillos y rojos representan las estaciones disponibles.

Ponga el ratón en el punto deseado para ver el nombre de la estación.

Haga clic para ver las observaciones y los pronósticos meteorológicos.

Para cambiar el mapa : haga clic en los botones verdes con una cruz de color negro para hacer un zoom, en el botón verde con un guión para alejar o en las flechas verdes para mapas adyacentes.


METAR-TAF: